KLWB/LWB METAR and TAF weather

Enter ICAO airport designator
Station Type Date Time Source
KLWB METAR 2019/02/20 17:35 UTC NOAA

KLWB 201735Z AUTO 08003KT 2 1/2SM UP OVC022 00/00 A3025 RMK AO2 P0005 T00021002


Station Type Date Time Source
KLWB Decoded METAR 2019/02/20 17:35 UTC NOAA

Lewisburg / Greenbrier, WV, United States (KLWB) 37-52N 080-24W
Feb 20, 2019 - 12:35 PM EST / 2019.02.20 1735 UTC
Wind: from the E (080 degrees) at 3 MPH (3 KT):0
Visibility: 2 1/2 mile(s):0
Sky conditions: overcast
Weather: precipitation
Precipitation last hour: 0.05 inches
Temperature: 32.4 F (0.2 C)
Dew Point: 31.6 F (-0.2 C)
Relative Humidity: 97%
Pressure (altimeter): 30.25 in. Hg (1024 hPa)
ob: KLWB 201735Z AUTO 08003KT 2 1/2SM UP OVC022 00/00 A3025 RMK AO2 P0005 T00021002
cycle: 17

Station Type Date Time Source
KLWB TAF 2019/02/20 18:22 UTC NOAA

TAF KLWB 201720Z 2018/2118 07005KT 2SM -FZRA SCT008 OVC018
TEMPO 2018/2021 1SM -FZDZ OVC008
FM202300 08006KT 4SM -RA BR OVC015
FM210900 VRB02KT 3SM -RA BR OVC006
FM211300 VRB04KT 5SM BR BKN008
FM211500 29005KT P6SM SCT010


Example: see airport list